createdAt,value
2023-05-24T00:00:23.709Z,8.63
2023-05-24T00:02:51.042Z,6.95
2023-05-24T00:05:19.017Z,6.40
2023-05-24T00:07:46.150Z,11.63
2023-05-24T00:10:13.406Z,5.78
2023-05-24T00:12:40.569Z,8.07
2023-05-24T00:15:08.088Z,9.43
2023-05-24T00:17:41.416Z,6.25
2023-05-24T00:20:12.174Z,8.82
2023-05-24T00:22:39.375Z,7.97
2023-05-24T00:25:06.898Z,7.78
2023-05-24T00:27:34.035Z,7.70
2023-05-24T00:30:01.092Z,8.98
2023-05-24T00:32:42.498Z,10.05
2023-05-24T00:35:09.748Z,6.13
2023-05-24T00:37:37.568Z,7.25
2023-05-24T00:40:05.114Z,7.70
2023-05-24T00:42:32.295Z,7.30
2023-05-24T00:44:59.790Z,10.30
2023-05-24T00:47:26.880Z,9.02
2023-05-24T00:49:53.850Z,9.77
2023-05-24T00:52:21.136Z,13.00
2023-05-24T00:54:49.252Z,9.63
2023-05-24T00:57:18.938Z,12.70
2023-05-24T00:59:46.483Z,11.55
2023-05-24T01:02:13.448Z,12.93
2023-05-24T01:04:40.910Z,14.60
2023-05-24T01:07:52.609Z,17.67
2023-05-24T01:10:53.578Z,16.75
2023-05-24T01:13:34.453Z,17.98
2023-05-24T01:16:18.117Z,14.02
2023-05-24T01:18:47.894Z,10.05
2023-05-24T01:21:41.800Z,16.13
2023-05-24T01:24:46.964Z,12.32
2023-05-24T01:27:14.284Z,12.23
2023-05-24T01:29:41.357Z,12.18
2023-05-24T01:32:08.392Z,11.85
2023-05-24T01:34:35.413Z,10.27
2023-05-24T01:37:02.536Z,8.73
2023-05-24T01:39:29.754Z,12.15
2023-05-24T01:42:21.264Z,8.23
2023-05-24T01:44:58.092Z,7.80
2023-05-24T01:47:28.212Z,7.40
2023-05-24T01:49:59.764Z,11.13
2023-05-24T01:52:31.866Z,9.38
2023-05-24T01:54:58.992Z,11.00
2023-05-24T01:57:26.131Z,10.68
2023-05-24T01:59:53.204Z,8.98
2023-05-24T02:02:20.448Z,18.75
2023-05-24T02:04:47.635Z,16.08
2023-05-24T02:07:14.655Z,17.90
2023-05-24T02:09:41.763Z,21.15
2023-05-24T02:12:09.463Z,21.75
2023-05-24T02:14:38.054Z,26.17
2023-05-24T02:17:06.226Z,20.95
2023-05-24T02:19:36.975Z,22.02
2023-05-24T02:22:07.385Z,21.90
2023-05-24T02:24:35.012Z,29.63
2023-05-24T02:27:02.728Z,35.30
2023-05-24T02:29:29.919Z,47.22
2023-05-24T02:31:57.068Z,48.90
2023-05-24T02:34:24.208Z,46.38
2023-05-24T02:36:51.763Z,28.25
2023-05-24T02:39:18.860Z,26.83
2023-05-24T02:41:45.917Z,27.30
2023-05-24T02:44:13.149Z,17.48
2023-05-24T02:46:40.645Z,19.58
2023-05-24T02:49:08.029Z,13.45
2023-05-24T02:51:35.083Z,14.93
2023-05-24T02:54:02.176Z,11.30
2023-05-24T02:56:29.692Z,12.35
2023-05-24T02:58:57.161Z,9.88
2023-05-24T03:01:24.356Z,11.23
2023-05-24T03:03:53.542Z,11.90
2023-05-24T03:06:21.040Z,16.08
2023-05-24T03:08:49.373Z,11.93
2023-05-24T03:11:16.823Z,10.35
2023-05-24T03:13:44.461Z,9.75
2023-05-24T03:16:11.850Z,13.20
2023-05-24T03:18:39.073Z,12.38
2023-05-24T03:21:07.554Z,11.32
2023-05-24T03:23:34.659Z,12.13
2023-05-24T03:26:01.805Z,13.00
2023-05-24T03:28:30.196Z,10.95
2023-05-24T03:30:58.080Z,10.57
2023-05-24T03:33:25.518Z,14.48
2023-05-24T03:35:52.703Z,13.60
2023-05-24T03:38:19.779Z,10.73
2023-05-24T03:40:47.999Z,9.63
2023-05-24T03:43:18.574Z,10.45
2023-05-24T03:45:53.747Z,9.97
2023-05-24T03:48:21.171Z,10.35
2023-05-24T03:50:49.047Z,8.27
2023-05-24T03:53:17.482Z,12.55
2023-05-24T03:55:44.857Z,8.65
2023-05-24T03:58:12.846Z,9.90
2023-05-24T04:00:39.930Z,9.20
2023-05-24T04:03:09.197Z,8.15
2023-05-24T04:05:36.330Z,13.05
2023-05-24T04:08:04.396Z,12.60
2023-05-24T04:10:31.615Z,7.47
2023-05-24T04:12:58.850Z,11.27
2023-05-24T04:15:26.949Z,8.90
2023-05-24T04:17:55.386Z,12.48
2023-05-24T04:20:27.729Z,10.30
2023-05-24T04:22:56.187Z,10.35
2023-05-24T04:25:23.498Z,8.77
2023-05-24T04:27:50.923Z,13.43
2023-05-24T04:30:18.272Z,9.65
2023-05-24T04:32:45.326Z,7.95
2023-05-24T04:35:13.013Z,9.68
2023-05-24T04:37:41.040Z,10.05
2023-05-24T04:40:08.750Z,9.18
2023-05-24T04:42:35.931Z,9.57
2023-05-24T04:45:03.012Z,7.88
2023-05-24T04:47:33.863Z,9.85
2023-05-24T04:50:01.101Z,10.98
2023-05-24T04:52:28.242Z,9.13
2023-05-24T04:54:55.694Z,8.85
2023-05-24T04:57:22.963Z,7.88
2023-05-24T04:59:50.059Z,7.80
2023-05-24T05:02:17.601Z,8.55
2023-05-24T05:04:44.852Z,8.90
2023-05-24T05:07:11.885Z,17.83
2023-05-24T05:09:39.018Z,11.77
2023-05-24T05:12:07.249Z,10.27
2023-05-24T05:14:34.422Z,17.23
2023-05-24T05:17:01.624Z,17.38
2023-05-24T05:19:28.885Z,11.93
2023-05-24T05:21:56.115Z,15.50
2023-05-24T05:24:23.261Z,11.05
2023-05-24T05:26:50.619Z,11.80
2023-05-24T05:29:17.687Z,12.13
2023-05-24T05:31:44.948Z,9.57
2023-05-24T05:34:12.104Z,10.45
2023-05-24T05:36:40.943Z,8.80
2023-05-24T05:39:11.550Z,7.85
2023-05-24T05:41:46.294Z,11.02
2023-05-24T05:44:13.908Z,7.72
2023-05-24T05:46:43.965Z,8.63
2023-05-24T05:49:11.486Z,11.38
2023-05-24T05:51:39.980Z,9.52
2023-05-24T05:54:08.961Z,7.60
2023-05-24T05:56:41.140Z,11.73
2023-05-24T05:59:08.231Z,8.05
2023-05-24T06:01:35.576Z,11.27
2023-05-24T06:04:02.792Z,10.55
2023-05-24T06:06:30.069Z,8.02
2023-05-24T06:08:57.272Z,9.80
2023-05-24T06:11:24.299Z,8.63
2023-05-24T06:13:51.601Z,9.80
2023-05-24T06:16:18.785Z,9.82
2023-05-24T06:19:01.251Z,9.68
2023-05-24T06:23:59.861Z,8.55
2023-05-24T06:26:27.286Z,7.70
2023-05-24T06:28:54.752Z,7.10
2023-05-24T06:31:22.171Z,7.35
2023-05-24T06:34:02.823Z,8.90
2023-05-24T06:36:31.100Z,8.35
2023-05-24T06:38:58.318Z,11.35
2023-05-24T06:41:25.271Z,7.15
2023-05-24T06:43:52.683Z,7.05
2023-05-24T06:46:19.822Z,11.98
2023-05-24T06:48:47.618Z,10.52
2023-05-24T06:51:14.824Z,8.70
2023-05-24T06:53:41.973Z,10.57
2023-05-24T06:56:09.927Z,10.85
2023-05-24T06:58:36.978Z,9.23
2023-05-24T07:01:05.220Z,10.05
2023-05-24T07:03:32.570Z,10.40
2023-05-24T07:05:59.768Z,6.15
2023-05-24T07:08:27.211Z,10.43
2023-05-24T07:10:54.717Z,9.05
2023-05-24T07:13:22.053Z,7.55
2023-05-24T07:15:49.390Z,6.68
2023-05-24T07:18:16.675Z,10.95
2023-05-24T07:20:44.166Z,7.28
2023-05-24T07:23:12.140Z,6.75
2023-05-24T07:25:39.306Z,10.07
2023-05-24T07:28:06.345Z,7.10
2023-05-24T07:30:34.138Z,9.05
2023-05-24T07:33:02.042Z,6.22
2023-05-24T07:35:29.560Z,24.52
2023-05-24T07:37:57.016Z,9.50
2023-05-24T07:40:24.229Z,6.22
2023-05-24T07:42:51.643Z,7.60
2023-05-24T07:45:18.691Z,5.93
2023-05-24T07:47:46.077Z,10.35
2023-05-24T07:50:13.257Z,7.13
2023-05-24T07:52:40.389Z,8.45
2023-05-24T07:55:07.840Z,7.15
2023-05-24T07:57:34.973Z,9.23
2023-05-24T08:00:10.299Z,8.07
2023-05-24T08:02:39.077Z,9.45
2023-05-24T08:05:06.689Z,6.30
2023-05-24T08:07:33.759Z,5.43
2023-05-24T08:10:01.198Z,6.45
2023-05-24T08:12:30.551Z,5.20
2023-05-24T08:14:57.668Z,6.57
2023-05-24T08:17:25.135Z,12.90
2023-05-24T08:19:52.230Z,7.35
2023-05-24T08:22:19.865Z,7.40
2023-05-24T08:24:47.505Z,7.07
2023-05-24T08:27:14.855Z,10.25
2023-05-24T08:29:42.101Z,7.82
2023-05-24T08:32:09.851Z,7.15
2023-05-24T08:34:37.790Z,6.68
2023-05-24T08:37:05.182Z,29.15
2023-05-24T08:39:32.323Z,8.25
2023-05-24T08:44:32.566Z,5.10
2023-05-24T08:46:59.553Z,4.93
2023-05-24T08:49:26.694Z,4.72
2023-05-24T08:51:53.817Z,7.65
2023-05-24T08:54:21.299Z,5.82
2023-05-24T08:56:48.480Z,7.13
2023-05-24T08:59:15.535Z,10.98
2023-05-24T09:01:42.594Z,7.93
2023-05-24T09:04:09.741Z,4.70
2023-05-24T09:06:37.202Z,7.25
2023-05-24T09:09:04.340Z,11.20
2023-05-24T09:11:32.190Z,7.47
2023-05-24T09:13:59.237Z,7.80
2023-05-24T09:16:26.374Z,7.35
2023-05-24T09:18:53.568Z,6.57
2023-05-24T09:21:20.819Z,8.15
2023-05-24T09:23:47.925Z,6.00
2023-05-24T09:26:15.090Z,6.72
2023-05-24T09:28:42.302Z,6.75
2023-05-24T09:31:09.372Z,5.72
2023-05-24T09:33:36.451Z,4.53
2023-05-24T09:36:04.920Z,6.18
2023-05-24T09:38:32.112Z,6.07
2023-05-24T09:41:03.324Z,6.90
2023-05-24T09:43:37.377Z,7.20
2023-05-24T09:46:04.956Z,7.75
2023-05-24T09:48:32.073Z,10.90
2023-05-24T09:51:06.643Z,8.23
2023-05-24T09:53:36.154Z,5.63
2023-05-24T09:56:07.238Z,6.95
2023-05-24T09:58:34.394Z,8.90
2023-05-24T10:01:06.683Z,7.55
2023-05-24T10:03:35.108Z,6.82
2023-05-24T10:06:04.986Z,9.07
2023-05-24T10:08:32.347Z,5.50
2023-05-24T10:10:59.497Z,9.40
2023-05-24T10:13:26.995Z,7.13
2023-05-24T10:15:53.976Z,6.22
2023-05-24T10:18:21.341Z,5.68
2023-05-24T10:20:48.876Z,9.20
2023-05-24T10:23:20.622Z,8.18
2023-05-24T10:26:09.884Z,9.27
2023-05-24T10:28:44.842Z,7.68
2023-05-24T10:31:22.159Z,4.85
2023-05-24T10:33:49.186Z,9.23
2023-05-24T10:36:16.315Z,8.48
2023-05-24T10:38:43.717Z,10.88
2023-05-24T10:41:10.985Z,13.07
2023-05-24T10:43:38.381Z,8.15
2023-05-24T10:46:07.558Z,8.68
2023-05-24T10:48:36.460Z,7.13
2023-05-24T10:51:36.545Z,6.95
2023-05-24T10:54:19.589Z,10.48
2023-05-24T10:56:48.366Z,7.13
2023-05-24T10:59:38.911Z,11.88
2023-05-24T11:02:09.862Z,15.15
2023-05-24T11:04:38.433Z,8.70
2023-05-24T11:07:06.145Z,11.10
2023-05-24T11:09:33.558Z,8.93
2023-05-24T11:12:04.211Z,8.02
2023-05-24T11:14:32.208Z,7.18
2023-05-24T11:17:02.283Z,8.35
2023-05-24T11:19:33.193Z,11.13
2023-05-24T11:22:00.697Z,10.07
2023-05-24T11:24:28.016Z,9.05
2023-05-24T11:26:57.201Z,9.93
2023-05-24T11:29:24.430Z,9.15
2023-05-24T11:31:53.154Z,11.60
2023-05-24T11:34:21.143Z,10.10
2023-05-24T11:36:48.555Z,8.95
2023-05-24T11:39:16.334Z,7.85
2023-05-24T11:41:43.715Z,9.50
2023-05-24T11:44:11.679Z,9.80
2023-05-24T11:46:39.586Z,7.95
2023-05-24T11:49:07.246Z,8.32
2023-05-24T11:51:34.685Z,6.80
2023-05-24T11:54:01.848Z,10.55
2023-05-24T11:56:33.018Z,8.13
2023-05-24T11:59:15.601Z,6.32
2023-05-24T12:01:42.980Z,10.65
2023-05-24T12:04:10.488Z,9.93
2023-05-24T12:06:44.826Z,8.65
2023-05-24T12:09:13.793Z,8.77
2023-05-24T12:11:47.326Z,8.93
2023-05-24T12:14:14.963Z,6.32
2023-05-24T12:16:46.243Z,11.15
2023-05-24T12:21:58.824Z,11.10
2023-05-24T12:24:26.451Z,9.77
2023-05-24T12:27:02.718Z,10.32
2023-05-24T12:29:39.995Z,10.88
2023-05-24T12:32:13.298Z,8.15
2023-05-24T12:34:42.550Z,9.88
2023-05-24T12:37:10.168Z,9.07
2023-05-24T12:39:38.006Z,10.00
2023-05-24T12:42:05.109Z,10.35
2023-05-24T12:44:35.899Z,11.07
2023-05-24T12:47:04.172Z,8.43
2023-05-24T12:49:31.766Z,11.68
2023-05-24T12:51:59.050Z,7.22
2023-05-24T12:54:27.491Z,9.45
2023-05-24T12:56:56.671Z,10.15
2023-05-24T12:59:24.778Z,8.52
2023-05-24T13:01:52.682Z,9.45
2023-05-24T13:04:21.220Z,9.15
2023-05-24T13:06:48.498Z,6.90
2023-05-24T13:09:18.154Z,10.05
2023-05-24T13:11:45.715Z,10.13
2023-05-24T13:14:13.018Z,8.73
2023-05-24T13:16:40.025Z,7.28
2023-05-24T13:19:07.377Z,10.38
2023-05-24T13:21:34.598Z,7.13
2023-05-24T13:24:01.696Z,7.85
2023-05-24T13:26:30.971Z,9.50
2023-05-24T13:31:28.140Z,9.52
2023-05-24T13:33:55.500Z,7.60
2023-05-24T13:36:22.569Z,9.68
2023-05-24T13:38:54.314Z,9.50
2023-05-24T13:41:29.758Z,6.15
2023-05-24T13:43:57.059Z,8.75
2023-05-24T13:46:24.201Z,7.65
2023-05-24T13:48:51.570Z,8.43
2023-05-24T13:51:20.000Z,9.20
2023-05-24T13:53:48.144Z,9.40
2023-05-24T13:56:16.034Z,10.25
2023-05-24T13:58:43.212Z,10.60
2023-05-24T14:01:10.635Z,8.85
2023-05-24T14:03:39.802Z,6.95
2023-05-24T14:06:10.618Z,8.52
2023-05-24T14:08:37.757Z,8.45
2023-05-24T14:11:04.815Z,8.90
2023-05-24T14:14:32.876Z,7.32
2023-05-24T14:16:18.976Z,7.15
2023-05-24T14:18:49.248Z,7.68
2023-05-24T14:21:17.990Z,5.78
2023-05-24T14:23:45.454Z,7.22
2023-05-24T14:26:12.557Z,8.80
2023-05-24T14:28:39.492Z,10.85
2023-05-24T14:31:06.737Z,8.13
2023-05-24T14:33:33.723Z,10.10
2023-05-24T14:36:01.068Z,6.00
2023-05-24T14:38:28.205Z,12.82
2023-05-24T14:40:56.984Z,7.53
2023-05-24T14:43:24.264Z,9.15
2023-05-24T14:45:51.451Z,12.68
2023-05-24T14:48:18.565Z,8.20
2023-05-24T14:50:45.567Z,11.25
2023-05-24T14:53:13.105Z,7.82
2023-05-24T14:55:42.238Z,7.22
2023-05-24T14:58:11.933Z,8.40
2023-05-24T15:00:39.901Z,8.05
2023-05-24T15:03:08.334Z,10.02
2023-05-24T15:05:36.463Z,11.45
2023-05-24T15:08:05.543Z,9.30
2023-05-24T15:10:33.438Z,8.35
2023-05-24T15:13:01.660Z,7.30
2023-05-24T15:15:29.144Z,10.50
2023-05-24T15:17:57.716Z,10.05
2023-05-24T15:20:41.023Z,9.75
2023-05-24T15:23:10.828Z,15.02
2023-05-24T15:25:38.621Z,9.27
2023-05-24T15:28:05.938Z,15.20
2023-05-24T15:30:33.089Z,8.85
2023-05-24T15:33:00.271Z,7.63
2023-05-24T15:35:27.267Z,9.63
2023-05-24T15:37:54.311Z,10.55
2023-05-24T15:40:24.216Z,10.60
2023-05-24T15:42:52.979Z,9.77
2023-05-24T15:45:21.036Z,11.05
2023-05-24T15:47:48.265Z,8.18
2023-05-24T15:50:16.395Z,10.75
2023-05-24T15:52:43.528Z,9.45
2023-05-24T15:55:10.965Z,10.65
2023-05-24T15:57:38.245Z,11.00
2023-05-24T16:00:06.001Z,8.38
2023-05-24T16:02:39.927Z,10.05
2023-05-24T16:05:07.692Z,8.07
2023-05-24T16:07:34.887Z,9.45
2023-05-24T16:10:02.037Z,10.32
2023-05-24T16:12:33.066Z,8.85
2023-05-24T16:15:00.313Z,7.68
2023-05-24T16:17:27.535Z,8.02
2023-05-24T16:19:54.652Z,10.43
2023-05-24T16:22:22.280Z,12.55
2023-05-24T16:24:49.334Z,8.18
2023-05-24T16:27:16.517Z,10.95
2023-05-24T16:29:45.592Z,9.07
2023-05-24T16:32:14.207Z,9.90
2023-05-24T16:34:56.020Z,8.25
2023-05-24T16:37:24.814Z,15.07
2023-05-24T16:39:52.194Z,12.48
2023-05-24T16:42:19.305Z,9.90
2023-05-24T16:44:46.590Z,10.80
2023-05-24T16:47:13.788Z,7.63
2023-05-24T16:49:41.063Z,9.85
2023-05-24T16:52:08.626Z,16.35
2023-05-24T16:54:35.731Z,14.23
2023-05-24T16:57:03.506Z,11.20
2023-05-24T16:59:30.599Z,10.52
2023-05-24T17:01:58.329Z,14.38
2023-05-24T17:04:25.580Z,9.13
2023-05-24T17:06:53.073Z,11.20
2023-05-24T17:09:20.289Z,12.55
2023-05-24T17:11:49.365Z,13.73
2023-05-24T17:14:17.964Z,8.75
2023-05-24T17:16:45.088Z,10.85
2023-05-24T17:19:14.099Z,8.73
2023-05-24T17:21:41.109Z,9.52
2023-05-24T17:24:08.353Z,17.67
2023-05-24T17:26:35.456Z,9.02
2023-05-24T17:29:02.581Z,13.00
2023-05-24T17:31:29.720Z,12.63
2023-05-24T17:33:57.493Z,9.00
2023-05-24T17:36:24.553Z,9.15
2023-05-24T17:38:51.705Z,11.82
2023-05-24T17:41:18.791Z,14.75
2023-05-24T17:43:46.188Z,13.30
2023-05-24T17:46:13.622Z,13.65
2023-05-24T17:48:41.394Z,15.10
2023-05-24T17:51:10.749Z,10.55
2023-05-24T17:53:38.197Z,14.48
2023-05-24T17:56:06.413Z,13.15
2023-05-24T17:58:36.973Z,13.00
2023-05-24T18:01:06.225Z,13.95
2023-05-24T18:03:34.192Z,16.65
2023-05-24T18:06:01.478Z,11.45
2023-05-24T18:08:28.607Z,15.80
2023-05-24T18:10:56.213Z,18.33
2023-05-24T18:13:23.357Z,13.73
2023-05-24T18:15:50.587Z,11.88
2023-05-24T18:18:17.811Z,15.27
2023-05-24T18:20:44.980Z,13.30
2023-05-24T18:23:12.880Z,15.50
2023-05-24T18:25:40.125Z,12.88
2023-05-24T18:28:07.472Z,13.43
2023-05-24T18:30:42.442Z,13.20
2023-05-24T18:33:09.732Z,13.82
2023-05-24T18:35:36.930Z,12.02
2023-05-24T18:38:04.564Z,14.07
2023-05-24T18:40:31.614Z,11.70
2023-05-24T18:42:58.707Z,8.65
2023-05-24T18:45:28.879Z,12.95
2023-05-24T18:47:55.977Z,12.90
2023-05-24T18:50:29.200Z,9.10
2023-05-24T18:52:56.427Z,13.48
2023-05-24T18:55:23.459Z,14.95
2023-05-24T18:57:50.627Z,12.85
2023-05-24T19:00:24.472Z,20.35
2023-05-24T19:05:46.418Z,19.48
2023-05-24T19:08:13.918Z,19.63
2023-05-24T19:10:41.369Z,14.18
2023-05-24T19:13:08.507Z,16.40
2023-05-24T19:15:37.375Z,18.42
2023-05-24T19:18:04.741Z,18.67
2023-05-24T19:20:31.991Z,19.30
2023-05-24T19:22:59.334Z,17.52
2023-05-24T19:25:26.570Z,18.23
2023-05-24T19:30:23.656Z,21.95
2023-05-24T19:32:50.874Z,18.92
2023-05-24T19:35:18.109Z,15.35
2023-05-24T19:37:45.085Z,20.63
2023-05-24T19:40:12.405Z,16.25
2023-05-24T19:42:39.372Z,12.57
2023-05-24T19:45:07.312Z,14.43
2023-05-24T19:47:34.459Z,14.68
2023-05-24T19:50:01.610Z,12.65
2023-05-24T19:52:30.406Z,12.02
2023-05-24T19:54:57.560Z,12.15
2023-05-24T19:57:24.598Z,16.67
2023-05-24T19:59:51.941Z,16.90
2023-05-24T20:02:19.019Z,16.88
2023-05-24T20:04:46.258Z,12.32
2023-05-24T20:07:14.825Z,11.43
2023-05-24T20:09:42.000Z,13.48
2023-05-24T20:12:09.472Z,14.40
2023-05-24T20:14:36.777Z,14.00
2023-05-24T20:17:04.215Z,11.73
2023-05-24T20:19:31.383Z,11.25
2023-05-24T20:21:59.150Z,15.32
2023-05-24T20:24:26.123Z,14.77
2023-05-24T20:26:53.149Z,11.35
2023-05-24T20:29:20.148Z,12.65
2023-05-24T20:31:47.381Z,12.82
2023-05-24T20:34:14.863Z,12.73
2023-05-24T20:36:43.717Z,10.88
2023-05-24T20:39:11.450Z,14.68
2023-05-24T20:41:38.842Z,15.77
2023-05-24T20:44:06.137Z,11.50
2023-05-24T20:46:33.695Z,11.52
2023-05-24T20:49:01.651Z,12.60
2023-05-24T20:51:28.811Z,11.38
2023-05-24T20:53:56.093Z,13.02
2023-05-24T20:56:23.253Z,12.68
2023-05-24T20:58:53.059Z,11.70
2023-05-24T21:01:21.396Z,13.98
2023-05-24T21:03:48.758Z,10.65
2023-05-24T21:06:16.036Z,13.35
2023-05-24T21:08:43.531Z,11.52
2023-05-24T21:11:10.806Z,18.08
2023-05-24T21:13:37.977Z,14.00
2023-05-24T21:16:05.252Z,12.35
2023-05-24T21:18:33.488Z,20.17
2023-05-24T21:21:01.076Z,9.85
2023-05-24T21:23:28.695Z,9.90
2023-05-24T21:25:55.839Z,11.38
2023-05-24T21:28:22.865Z,13.70
2023-05-24T21:30:50.047Z,15.05
2023-05-24T21:33:17.129Z,14.25
2023-05-24T21:35:44.444Z,15.43
2023-05-24T21:38:11.862Z,11.25
2023-05-24T21:40:38.931Z,13.18
2023-05-24T21:43:09.683Z,15.95
2023-05-24T21:45:36.874Z,13.98
2023-05-24T21:48:03.983Z,12.57
2023-05-24T21:50:31.039Z,11.07
2023-05-24T21:52:58.029Z,11.88
2023-05-24T21:55:25.020Z,13.50
2023-05-24T21:57:52.745Z,11.95
2023-05-24T22:00:20.252Z,12.30
2023-05-24T22:02:47.748Z,10.30
2023-05-24T22:05:15.034Z,14.10
2023-05-24T22:07:42.095Z,15.68
2023-05-24T22:10:09.480Z,17.45
2023-05-24T22:12:36.578Z,12.90
2023-05-24T22:15:04.310Z,12.65
2023-05-24T22:17:33.127Z,14.85
2023-05-24T22:20:04.658Z,14.82
2023-05-24T22:22:32.028Z,15.93
2023-05-24T22:25:02.598Z,20.77
2023-05-24T22:27:32.008Z,14.52
2023-05-24T22:29:59.075Z,12.70
2023-05-24T22:32:26.243Z,17.27
2023-05-24T22:34:53.388Z,11.50
2023-05-24T22:37:20.615Z,15.07
2023-05-24T22:39:47.700Z,15.30
2023-05-24T22:42:14.814Z,10.65
2023-05-24T22:44:41.926Z,10.55
2023-05-24T22:47:08.982Z,18.98
2023-05-24T22:49:36.162Z,16.00
2023-05-24T22:52:03.258Z,16.23
2023-05-24T22:54:30.317Z,15.15
2023-05-24T22:56:57.695Z,14.38
2023-05-24T22:59:24.714Z,11.50
2023-05-24T23:01:52.011Z,11.88
2023-05-24T23:04:21.668Z,16.15
2023-05-24T23:06:52.677Z,13.35
2023-05-24T23:09:29.499Z,16.38
2023-05-24T23:11:58.681Z,10.40
2023-05-24T23:14:26.161Z,16.75
2023-05-24T23:16:53.214Z,13.45
2023-05-24T23:19:22.183Z,11.98
2023-05-24T23:21:52.439Z,16.42
2023-05-24T23:24:19.523Z,16.23
2023-05-24T23:26:46.626Z,13.70
2023-05-24T23:29:14.101Z,13.35
2023-05-24T23:31:41.395Z,17.27
2023-05-24T23:34:08.660Z,13.95
2023-05-24T23:36:36.550Z,13.88
2023-05-24T23:39:04.026Z,11.13
2023-05-24T23:41:31.143Z,14.57
2023-05-24T23:43:58.112Z,13.68
2023-05-24T23:46:25.265Z,17.10
2023-05-24T23:48:52.348Z,28.02
2023-05-24T23:51:20.549Z,23.90
2023-05-24T23:53:47.675Z,19.88
2023-05-24T23:56:14.787Z,14.73
2023-05-24T23:58:42.058Z,17.80
